Naval Hospital, North Carolina
Current Conditions -  °F | °C
As of 12:56 PM on Friday 19 Dec 2014 (Local Time) from KNCA Reporting Station
Clear Clear  
Wind Chill: 54°   Ceiling: Unl
Heat Index: 54°   Visibility: 10mi
Dew Point: 27°   Wind: 9mph
Humidity: 35%   Direction: 330°NNW
Pressure: 30.12"   Gusts: NA
Location:  34.7003°N, 77.3614°W
Report Text: KNCA 191756Z 33008KT 10SM CLR 12/M03 A3012 RMK AO2 SLP200 T01221028 10122 21006 58021
Loading
Personal Weather Stations






























Interactive Weather Map New forecast layout! Learn more

10-Day Weather Forecast

Advertisements
Track Severe Weather on mobile